createdAt,value
2023-02-11T00:00:23.013Z,69.80
2023-02-11T00:05:46.360Z,69.60
2023-02-11T00:10:53.114Z,69.60
2023-02-11T00:15:58.180Z,69.40
2023-02-11T00:21:01.591Z,69.40
2023-02-11T00:26:05.769Z,69.40
2023-02-11T00:31:10.582Z,69.40
2023-02-11T00:36:17.415Z,69.30
2023-02-11T00:41:21.584Z,69.30
2023-02-11T00:46:26.506Z,69.30
2023-02-11T00:51:30.117Z,69.30
2023-02-11T00:56:33.608Z,69.30
2023-02-11T01:01:38.382Z,69.20
2023-02-11T01:06:41.856Z,69.10
2023-02-11T01:11:45.279Z,69.00
2023-02-11T01:16:50.024Z,69.10
2023-02-11T01:21:53.444Z,68.90
2023-02-11T01:26:56.862Z,68.90
2023-02-11T01:32:02.070Z,69.00
2023-02-11T01:37:05.936Z,69.20
2023-02-11T01:42:12.933Z,69.20
2023-02-11T01:47:17.865Z,69.30
2023-02-11T01:52:26.425Z,69.20
2023-02-11T01:57:33.232Z,69.00
2023-02-11T02:02:45.256Z,69.00
2023-02-11T02:07:57.317Z,69.20
2023-02-11T02:13:00.709Z,69.20
2023-02-11T02:18:30.543Z,69.20
2023-02-11T02:23:53.544Z,69.10
2023-02-11T02:29:28.202Z,69.00
2023-02-11T02:34:43.148Z,69.00
2023-02-11T02:39:48.021Z,68.80
2023-02-11T02:44:54.144Z,68.70
2023-02-11T02:49:59.069Z,68.60
2023-02-11T02:55:26.484Z,68.30
2023-02-11T03:00:36.544Z,68.30
2023-02-11T03:05:50.180Z,69.30
2023-02-11T03:10:55.376Z,68.00
2023-02-11T03:16:01.858Z,67.70
2023-02-11T03:21:09.280Z,67.50
2023-02-11T03:26:19.667Z,67.20
2023-02-11T03:31:30.529Z,67.10
2023-02-11T03:36:46.063Z,66.90
2023-02-11T03:41:53.610Z,67.20
2023-02-11T03:46:57.492Z,67.10
2023-02-11T03:52:05.700Z,67.00
2023-02-11T03:57:09.536Z,67.00
2023-02-11T04:02:13.206Z,66.70
2023-02-11T04:07:18.271Z,66.70
2023-02-11T04:12:22.121Z,66.60
2023-02-11T04:17:25.662Z,66.50
2023-02-11T04:22:31.021Z,66.20
2023-02-11T04:27:34.821Z,66.20
2023-02-11T04:32:38.167Z,66.10
2023-02-11T04:37:43.173Z,65.90
2023-02-11T04:42:46.895Z,65.90
2023-02-11T04:47:50.325Z,65.80
2023-02-11T04:52:55.546Z,65.60
2023-02-11T04:57:59.173Z,65.20
2023-02-11T05:03:02.594Z,65.20
2023-02-11T05:08:07.522Z,65.40
2023-02-11T05:13:10.920Z,65.30
2023-02-11T05:18:14.900Z,65.30
2023-02-11T05:23:19.656Z,65.20
2023-02-11T05:28:23.140Z,65.10
2023-02-11T05:33:26.789Z,64.80
2023-02-11T05:38:31.953Z,64.90
2023-02-11T05:43:36.584Z,64.60
2023-02-11T05:48:40.022Z,64.30
2023-02-11T05:53:44.748Z,64.50
2023-02-11T05:58:48.122Z,64.80
2023-02-11T06:03:51.588Z,64.80
2023-02-11T06:08:56.492Z,64.90
2023-02-11T06:13:59.890Z,65.00
2023-02-11T06:19:03.266Z,64.90
2023-02-11T06:24:09.085Z,65.00
2023-02-11T06:29:12.976Z,64.80
2023-02-11T06:34:16.446Z,65.00
2023-02-11T06:39:21.167Z,65.00
2023-02-11T06:44:24.940Z,65.00
2023-02-11T06:49:28.706Z,64.90
2023-02-11T06:54:33.474Z,64.50
2023-02-11T06:59:36.883Z,64.40
2023-02-11T07:04:40.272Z,64.40
2023-02-11T07:09:45.105Z,64.40
2023-02-11T07:14:48.479Z,64.60
2023-02-11T07:19:51.873Z,64.50
2023-02-11T07:24:56.692Z,64.50
2023-02-11T07:30:00.101Z,64.50
2023-02-11T07:35:04.022Z,64.50
2023-02-11T07:40:11.024Z,64.60
2023-02-11T07:45:15.399Z,64.60
2023-02-11T07:50:18.910Z,64.60
2023-02-11T07:55:23.645Z,64.60
2023-02-11T08:00:27.057Z,64.60
2023-02-11T08:05:30.560Z,64.50
2023-02-11T08:10:35.267Z,64.60
2023-02-11T08:15:38.632Z,64.50
2023-02-11T08:20:42.075Z,64.60
2023-02-11T08:25:46.842Z,64.70
2023-02-11T08:30:50.507Z,64.80
2023-02-11T08:35:54.082Z,64.70
2023-02-11T08:41:01.205Z,64.50
2023-02-11T08:46:05.791Z,64.70
2023-02-11T08:51:10.637Z,64.60
2023-02-11T08:56:16.476Z,64.50
2023-02-11T09:01:23.297Z,64.60
2023-02-11T09:06:27.944Z,64.80
2023-02-11T09:11:34.859Z,65.00
2023-02-11T09:16:38.266Z,65.00
2023-02-11T09:21:41.779Z,65.50
2023-02-11T09:26:46.550Z,66.00
2023-02-11T09:31:50.459Z,66.40
2023-02-11T09:36:54.199Z,67.40
2023-02-11T09:42:42.605Z,67.60
2023-02-11T09:47:55.308Z,67.90
2023-02-11T09:53:02.648Z,68.10
2023-02-11T09:58:12.964Z,68.30
2023-02-11T10:03:44.285Z,68.70
2023-02-11T10:08:58.296Z,68.60
2023-02-11T10:14:12.091Z,68.60
2023-02-11T10:19:33.962Z,68.80
2023-02-11T10:24:38.416Z,69.00
2023-02-11T10:29:45.341Z,68.80
2023-02-11T10:34:50.271Z,69.60
2023-02-11T10:39:53.761Z,68.40
2023-02-11T10:45:01.578Z,68.70
2023-02-11T10:50:20.478Z,69.10
2023-02-11T10:55:28.742Z,72.10
2023-02-11T11:00:40.551Z,74.00
2023-02-11T11:05:50.564Z,74.00
2023-02-11T11:11:08.332Z,74.60
2023-02-11T11:16:19.950Z,75.00
2023-02-11T11:21:26.962Z,75.80
2023-02-11T11:26:41.016Z,76.20
2023-02-11T11:31:51.209Z,76.50
2023-02-11T11:37:01.723Z,75.50
2023-02-11T11:42:07.341Z,77.60
2023-02-11T11:47:28.404Z,79.50
2023-02-11T11:52:41.114Z,80.00
2023-02-11T11:57:44.751Z,79.70
2023-02-11T12:03:24.500Z,79.60
2023-02-11T12:08:40.597Z,80.00
2023-02-11T12:14:01.698Z,80.50
2023-02-11T12:19:45.706Z,80.80
2023-02-11T12:25:18.687Z,82.00
2023-02-11T12:30:35.310Z,81.90
2023-02-11T12:35:51.795Z,81.60
2023-02-11T12:41:11.273Z,80.80
2023-02-11T12:46:35.292Z,81.00
2023-02-11T12:52:04.299Z,80.60
2023-02-11T12:57:16.598Z,80.50
2023-02-11T13:02:28.260Z,81.30
2023-02-11T13:07:37.912Z,81.50
2023-02-11T13:13:03.584Z,81.40
2023-02-11T13:18:21.238Z,81.90
2023-02-11T13:23:31.688Z,82.10
2023-02-11T13:28:46.439Z,82.40
2023-02-11T13:33:50.585Z,80.90
2023-02-11T13:39:00.936Z,79.90
2023-02-11T13:44:23.290Z,79.20
2023-02-11T13:49:31.685Z,78.50
2023-02-11T13:54:38.890Z,78.40
2023-02-11T13:59:49.513Z,78.10
2023-02-11T14:05:42.809Z,78.00
2023-02-11T14:10:51.616Z,76.90
2023-02-11T14:16:08.416Z,78.90
2023-02-11T14:21:14.281Z,80.00
2023-02-11T14:26:35.115Z,81.60
2023-02-11T14:31:45.249Z,82.30
2023-02-11T14:37:04.990Z,84.00
2023-02-11T14:42:19.950Z,83.10
2023-02-11T14:47:31.346Z,82.20
2023-02-11T14:52:38.812Z,81.90
2023-02-11T14:57:44.492Z,81.40
2023-02-11T15:02:50.075Z,81.90
2023-02-11T15:07:55.953Z,82.10
2023-02-11T15:13:00.614Z,82.40
2023-02-11T15:18:06.606Z,83.00
2023-02-11T15:23:19.991Z,83.00
2023-02-11T15:28:26.890Z,83.50
2023-02-11T15:33:32.841Z,83.50
2023-02-11T15:38:36.204Z,83.60
2023-02-11T15:43:44.614Z,83.80
2023-02-11T15:48:51.661Z,83.60
2023-02-11T15:53:58.561Z,84.40
2023-02-11T15:59:12.986Z,84.80
2023-02-11T16:04:21.105Z,85.10
2023-02-11T16:09:34.021Z,85.10
2023-02-11T16:14:39.272Z,85.50
2023-02-11T16:19:47.748Z,85.90
2023-02-11T16:24:54.117Z,86.20
2023-02-11T16:29:58.737Z,86.10
2023-02-11T16:35:05.901Z,86.20
2023-02-11T16:40:12.578Z,86.50
2023-02-11T16:45:16.347Z,86.40
2023-02-11T16:50:25.891Z,87.20
2023-02-11T16:55:29.897Z,87.00
2023-02-11T17:00:33.601Z,86.70
2023-02-11T17:05:54.268Z,86.80
2023-02-11T17:10:58.588Z,86.30
2023-02-11T17:16:02.131Z,86.60
2023-02-11T17:21:09.134Z,86.90
2023-02-11T17:26:12.657Z,87.30
2023-02-11T17:31:16.128Z,87.10
2023-02-11T17:36:21.026Z,87.70
2023-02-11T17:41:24.774Z,88.20
2023-02-11T17:46:29.275Z,88.30
2023-02-11T17:51:36.059Z,87.80
2023-02-11T17:56:40.065Z,87.50
2023-02-11T18:01:44.521Z,87.80
2023-02-11T18:06:50.630Z,87.80
2023-02-11T18:11:54.198Z,87.50
2023-02-11T18:16:57.676Z,87.70
2023-02-11T18:22:04.318Z,87.80
2023-02-11T18:27:07.930Z,87.90
2023-02-11T18:32:11.488Z,88.10
2023-02-11T18:37:16.383Z,88.20
2023-02-11T18:42:19.789Z,88.10
2023-02-11T18:47:23.473Z,88.30
2023-02-11T18:52:28.499Z,88.90
2023-02-11T18:57:31.978Z,89.20
2023-02-11T19:02:35.464Z,89.30
2023-02-11T19:07:40.724Z,89.90
2023-02-11T19:12:44.100Z,89.70
2023-02-11T19:17:47.473Z,89.60
2023-02-11T19:22:52.276Z,89.30
2023-02-11T19:27:55.694Z,90.30
2023-02-11T19:32:59.058Z,89.70
2023-02-11T19:38:04.275Z,90.20
2023-02-11T19:43:07.673Z,90.10
2023-02-11T19:48:13.706Z,90.00
2023-02-11T19:53:18.429Z,89.50
2023-02-11T19:58:21.820Z,89.30
2023-02-11T20:03:25.273Z,88.90
2023-02-11T20:08:30.354Z,88.60
2023-02-11T20:13:34.895Z,88.70
2023-02-11T20:18:38.242Z,88.90
2023-02-11T20:23:44.881Z,89.70
2023-02-11T20:28:49.856Z,89.60
2023-02-11T20:33:53.325Z,89.30
2023-02-11T20:38:58.051Z,89.30
2023-02-11T20:44:03.688Z,89.30
2023-02-11T20:49:08.699Z,88.90
2023-02-11T20:54:16.245Z,89.60
2023-02-11T20:59:20.991Z,90.10
2023-02-11T21:04:26.214Z,90.00
2023-02-11T21:09:33.609Z,90.00
2023-02-11T21:14:36.990Z,90.40
2023-02-11T21:19:41.395Z,90.30
2023-02-11T21:24:46.160Z,90.30
2023-02-11T21:29:54.622Z,90.10
2023-02-11T21:35:00.553Z,90.00
2023-02-11T21:40:07.802Z,90.00
2023-02-11T21:45:11.330Z,90.10
2023-02-11T21:50:14.687Z,90.20
2023-02-11T21:55:19.855Z,90.40
2023-02-11T22:00:23.876Z,90.20
2023-02-11T22:05:27.353Z,90.20
2023-02-11T22:10:32.507Z,90.30
2023-02-11T22:15:35.944Z,90.50
2023-02-11T22:20:39.524Z,90.60
2023-02-11T22:25:44.240Z,90.50
2023-02-11T22:30:47.663Z,90.70
2023-02-11T22:35:58.394Z,90.80
2023-02-11T22:41:07.858Z,90.90
2023-02-11T22:46:14.532Z,90.90
2023-02-11T22:51:20.505Z,90.80
2023-02-11T22:56:26.380Z,90.90
2023-02-11T23:01:31.405Z,90.90
2023-02-11T23:06:35.380Z,90.80
2023-02-11T23:11:41.059Z,90.70
2023-02-11T23:16:44.835Z,90.60
2023-02-11T23:21:52.470Z,90.90
2023-02-11T23:26:57.226Z,90.60
2023-02-11T23:32:00.712Z,90.60
2023-02-11T23:37:04.315Z,90.80
2023-02-11T23:42:09.144Z,90.80
2023-02-11T23:47:12.517Z,90.80
2023-02-11T23:52:16.240Z,90.80
2023-02-11T23:57:21.014Z,91.00
